sensor_id;sensor_type;location;lat;lon;timestamp;P1;durP1;ratioP1;P2;durP2;ratioP2
64651;SDS011;51062;45.120;37.660;2023-05-23T00:01:00;1.02;;;1.02;;
64651;SDS011;51062;45.120;37.660;2023-05-23T00:03:26;0.57;;;0.55;;
64651;SDS011;51062;45.120;37.660;2023-05-23T00:05:53;1.05;;;1.05;;
64651;SDS011;51062;45.120;37.660;2023-05-23T00:08:21;1.13;;;1.02;;
64651;SDS011;51062;45.120;37.660;2023-05-23T00:10:47;0.73;;;0.73;;
64651;SDS011;51062;45.120;37.660;2023-05-23T00:13:13;2.00;;;1.83;;
64651;SDS011;51062;45.120;37.660;2023-05-23T00:15:40;5.97;;;2.30;;
64651;SDS011;51062;45.120;37.660;2023-05-23T00:18:06;5.82;;;2.85;;
64651;SDS011;51062;45.120;37.660;2023-05-23T00:20:36;11.80;;;5.78;;
64651;SDS011;51062;45.120;37.660;2023-05-23T00:23:06;9.23;;;3.97;;
64651;SDS011;51062;45.120;37.660;2023-05-23T00:25:34;6.63;;;6.03;;
64651;SDS011;51062;45.120;37.660;2023-05-23T00:28:01;14.07;;;7.78;;
64651;SDS011;51062;45.120;37.660;2023-05-23T00:30:28;14.48;;;5.70;;
64651;SDS011;51062;45.120;37.660;2023-05-23T00:32:57;10.75;;;8.65;;
64651;SDS011;51062;45.120;37.660;2023-05-23T00:35:23;10.85;;;7.35;;
64651;SDS011;51062;45.120;37.660;2023-05-23T00:37:50;13.50;;;8.95;;
64651;SDS011;51062;45.120;37.660;2023-05-23T00:40:17;8.07;;;4.75;;
64651;SDS011;51062;45.120;37.660;2023-05-23T00:42:43;3.30;;;2.42;;
64651;SDS011;51062;45.120;37.660;2023-05-23T00:45:10;5.22;;;2.20;;
64651;SDS011;51062;45.120;37.660;2023-05-23T00:47:40;1.48;;;1.40;;
64651;SDS011;51062;45.120;37.660;2023-05-23T00:50:08;1.15;;;1.15;;
64651;SDS011;51062;45.120;37.660;2023-05-23T00:52:40;3.75;;;3.40;;
64651;SDS011;51062;45.120;37.660;2023-05-23T00:55:07;1.65;;;1.55;;
64651;SDS011;51062;45.120;37.660;2023-05-23T00:57:35;3.53;;;2.40;;
64651;SDS011;51062;45.120;37.660;2023-05-23T01:00:06;0.82;;;0.82;;
64651;SDS011;51062;45.120;37.660;2023-05-23T01:02:37;1.08;;;1.05;;
64651;SDS011;51062;45.120;37.660;2023-05-23T01:05:08;1.27;;;1.20;;
64651;SDS011;51062;45.120;37.660;2023-05-23T01:07:39;1.88;;;1.55;;
64651;SDS011;51062;45.120;37.660;2023-05-23T01:10:06;0.85;;;0.85;;
64651;SDS011;51062;45.120;37.660;2023-05-23T01:15:22;0.63;;;0.63;;
64651;SDS011;51062;45.120;37.660;2023-05-23T01:17:59;0.90;;;0.90;;
64651;SDS011;51062;45.120;37.660;2023-05-23T01:20:39;0.50;;;0.50;;
64651;SDS011;51062;45.120;37.660;2023-05-23T01:28:37;0.30;;;0.30;;
64651;SDS011;51062;45.120;37.660;2023-05-23T01:31:08;2.90;;;1.67;;
64651;SDS011;51062;45.120;37.660;2023-05-23T01:33:37;0.75;;;0.75;;
64651;SDS011;51062;45.120;37.660;2023-05-23T01:36:04;1.10;;;1.02;;
64651;SDS011;51062;45.120;37.660;2023-05-23T01:38:31;0.68;;;0.68;;
64651;SDS011;51062;45.120;37.660;2023-05-23T01:40:58;0.30;;;0.30;;
64651;SDS011;51062;45.120;37.660;2023-05-23T01:43:25;0.20;;;0.20;;
64651;SDS011;51062;45.120;37.660;2023-05-23T01:45:52;1.50;;;1.40;;
64651;SDS011;51062;45.120;37.660;2023-05-23T01:48:20;3.63;;;0.70;;
64651;SDS011;51062;45.120;37.660;2023-05-23T01:50:47;0.30;;;0.30;;
64651;SDS011;51062;45.120;37.660;2023-05-23T01:53:14;0.30;;;0.30;;
64651;SDS011;51062;45.120;37.660;2023-05-23T01:55:41;0.77;;;0.77;;
64651;SDS011;51062;45.120;37.660;2023-05-23T01:58:07;1.00;;;0.95;;
64651;SDS011;51062;45.120;37.660;2023-05-23T02:00:34;0.95;;;0.75;;
64651;SDS011;51062;45.120;37.660;2023-05-23T02:03:01;0.30;;;0.30;;
64651;SDS011;51062;45.120;37.660;2023-05-23T02:05:28;0.25;;;0.25;;
64651;SDS011;51062;45.120;37.660;2023-05-23T02:07:54;0.30;;;0.30;;
64651;SDS011;51062;45.120;37.660;2023-05-23T02:10:21;0.40;;;0.40;;
64651;SDS011;51062;45.120;37.660;2023-05-23T02:12:47;0.70;;;0.70;;
64651;SDS011;51062;45.120;37.660;2023-05-23T02:15:14;0.40;;;0.40;;
64651;SDS011;51062;45.120;37.660;2023-05-23T02:17:41;1.10;;;1.10;;
64651;SDS011;51062;45.120;37.660;2023-05-23T02:20:08;0.45;;;0.45;;
64651;SDS011;51062;45.120;37.660;2023-05-23T02:22:37;1.65;;;1.05;;
64651;SDS011;51062;45.120;37.660;2023-05-23T02:25:03;0.30;;;0.30;;
64651;SDS011;51062;45.120;37.660;2023-05-23T02:27:31;0.20;;;0.20;;
64651;SDS011;51062;45.120;37.660;2023-05-23T02:29:57;0.20;;;0.20;;
64651;SDS011;51062;45.120;37.660;2023-05-23T02:32:23;0.22;;;0.22;;
64651;SDS011;51062;45.120;37.660;2023-05-23T02:34:50;0.40;;;0.40;;
64651;SDS011;51062;45.120;37.660;2023-05-23T02:37:16;0.30;;;0.30;;
64651;SDS011;51062;45.120;37.660;2023-05-23T02:39:42;0.40;;;0.40;;
64651;SDS011;51062;45.120;37.660;2023-05-23T02:42:09;0.38;;;0.38;;
64651;SDS011;51062;45.120;37.660;2023-05-23T02:44:35;1.33;;;0.60;;
64651;SDS011;51062;45.120;37.660;2023-05-23T02:47:02;0.28;;;0.28;;
64651;SDS011;51062;45.120;37.660;2023-05-23T02:49:28;0.77;;;0.77;;
64651;SDS011;51062;45.120;37.660;2023-05-23T02:51:54;0.40;;;0.40;;
64651;SDS011;51062;45.120;37.660;2023-05-23T02:54:20;0.20;;;0.20;;
64651;SDS011;51062;45.120;37.660;2023-05-23T02:56:46;0.40;;;0.40;;
64651;SDS011;51062;45.120;37.660;2023-05-23T02:59:13;37.35;;;1.60;;
64651;SDS011;51062;45.120;37.660;2023-05-23T03:01:39;0.40;;;0.40;;
64651;SDS011;51062;45.120;37.660;2023-05-23T03:04:05;0.28;;;0.28;;
64651;SDS011;51062;45.120;37.660;2023-05-23T03:06:31;0.32;;;0.32;;
64651;SDS011;51062;45.120;37.660;2023-05-23T03:08:59;0.70;;;0.50;;
64651;SDS011;51062;45.120;37.660;2023-05-23T03:11:26;0.25;;;0.25;;
64651;SDS011;51062;45.120;37.660;2023-05-23T03:13:54;2.17;;;0.77;;
64651;SDS011;51062;45.120;37.660;2023-05-23T03:16:21;2.40;;;1.05;;
64651;SDS011;51062;45.120;37.660;2023-05-23T03:18:50;0.57;;;0.57;;
64651;SDS011;51062;45.120;37.660;2023-05-23T03:21:16;0.30;;;0.30;;
64651;SDS011;51062;45.120;37.660;2023-05-23T03:23:42;0.40;;;0.40;;
64651;SDS011;51062;45.120;37.660;2023-05-23T03:26:08;0.28;;;0.28;;
64651;SDS011;51062;45.120;37.660;2023-05-23T03:28:34;0.40;;;0.40;;
64651;SDS011;51062;45.120;37.660;2023-05-23T03:31:01;0.20;;;0.20;;
64651;SDS011;51062;45.120;37.660;2023-05-23T03:33:27;0.45;;;0.45;;
64651;SDS011;51062;45.120;37.660;2023-05-23T03:35:53;0.20;;;0.20;;
64651;SDS011;51062;45.120;37.660;2023-05-23T03:38:21;0.30;;;0.30;;
64651;SDS011;51062;45.120;37.660;2023-05-23T03:40:47;0.28;;;0.28;;
64651;SDS011;51062;45.120;37.660;2023-05-23T03:43:14;0.30;;;0.30;;
64651;SDS011;51062;45.120;37.660;2023-05-23T03:45:41;0.30;;;0.30;;
64651;SDS011;51062;45.120;37.660;2023-05-23T03:48:11;0.45;;;0.45;;
64651;SDS011;51062;45.120;37.660;2023-05-23T03:50:39;0.80;;;0.45;;
64651;SDS011;51062;45.120;37.660;2023-05-23T03:53:06;0.22;;;0.22;;
64651;SDS011;51062;45.120;37.660;2023-05-23T03:55:32;0.73;;;0.73;;
64651;SDS011;51062;45.120;37.660;2023-05-23T03:58:00;0.30;;;0.30;;
64651;SDS011;51062;45.120;37.660;2023-05-23T04:00:26;0.20;;;0.20;;
64651;SDS011;51062;45.120;37.660;2023-05-23T04:02:52;0.70;;;0.70;;
64651;SDS011;51062;45.120;37.660;2023-05-23T04:05:22;0.45;;;0.45;;
64651;SDS011;51062;45.120;37.660;2023-05-23T04:07:49;4.07;;;0.82;;
64651;SDS011;51062;45.120;37.660;2023-05-23T04:10:17;0.55;;;0.55;;
64651;SDS011;51062;45.120;37.660;2023-05-23T04:12:44;0.25;;;0.25;;
64651;SDS011;51062;45.120;37.660;2023-05-23T04:15:13;0.60;;;0.60;;
64651;SDS011;51062;45.120;37.660;2023-05-23T04:17:50;0.55;;;0.55;;
64651;SDS011;51062;45.120;37.660;2023-05-23T04:20:17;0.20;;;0.20;;
64651;SDS011;51062;45.120;37.660;2023-05-23T04:22:42;0.55;;;0.55;;
64651;SDS011;51062;45.120;37.660;2023-05-23T04:25:09;0.45;;;0.45;;
64651;SDS011;51062;45.120;37.660;2023-05-23T04:27:43;0.85;;;0.77;;
64651;SDS011;51062;45.120;37.660;2023-05-23T04:30:09;0.30;;;0.30;;
64651;SDS011;51062;45.120;37.660;2023-05-23T04:32:38;0.20;;;0.20;;
64651;SDS011;51062;45.120;37.660;2023-05-23T04:35:05;0.50;;;0.50;;
64651;SDS011;51062;45.120;37.660;2023-05-23T04:37:37;0.30;;;0.30;;
64651;SDS011;51062;45.120;37.660;2023-05-23T04:40:05;0.20;;;0.20;;
64651;SDS011;51062;45.120;37.660;2023-05-23T04:42:50;0.68;;;0.68;;
64651;SDS011;51062;45.120;37.660;2023-05-23T04:45:26;0.40;;;0.40;;
64651;SDS011;51062;45.120;37.660;2023-05-23T04:48:00;0.50;;;0.50;;
64651;SDS011;51062;45.120;37.660;2023-05-23T04:50:37;0.20;;;0.20;;
64651;SDS011;51062;45.120;37.660;2023-05-23T04:53:05;0.32;;;0.32;;
64651;SDS011;51062;45.120;37.660;2023-05-23T04:55:31;0.40;;;0.40;;
64651;SDS011;51062;45.120;37.660;2023-05-23T04:57:58;0.43;;;0.40;;
64651;SDS011;51062;45.120;37.660;2023-05-23T05:00:25;0.30;;;0.30;;
64651;SDS011;51062;45.120;37.660;2023-05-23T05:02:52;1.08;;;0.40;;
64651;SDS011;51062;45.120;37.660;2023-05-23T05:05:18;0.45;;;0.45;;
64651;SDS011;51062;45.120;37.660;2023-05-23T05:07:44;0.30;;;0.30;;
64651;SDS011;51062;45.120;37.660;2023-05-23T05:10:11;0.35;;;0.35;;
64651;SDS011;51062;45.120;37.660;2023-05-23T05:12:43;0.30;;;0.30;;
64651;SDS011;51062;45.120;37.660;2023-05-23T05:15:17;0.10;;;0.10;;
64651;SDS011;51062;45.120;37.660;2023-05-23T05:17:48;0.38;;;0.38;;
64651;SDS011;51062;45.120;37.660;2023-05-23T05:20:17;0.30;;;0.30;;
64651;SDS011;51062;45.120;37.660;2023-05-23T05:22:44;0.35;;;0.32;;
64651;SDS011;51062;45.120;37.660;2023-05-23T05:25:11;0.20;;;0.20;;
64651;SDS011;51062;45.120;37.660;2023-05-23T05:27:38;0.50;;;0.50;;
64651;SDS011;51062;45.120;37.660;2023-05-23T05:30:07;0.50;;;0.50;;
64651;SDS011;51062;45.120;37.660;2023-05-23T05:32:45;0.30;;;0.30;;
64651;SDS011;51062;45.120;37.660;2023-05-23T05:35:12;0.45;;;0.45;;
64651;SDS011;51062;45.120;37.660;2023-05-23T05:37:40;0.45;;;0.45;;
64651;SDS011;51062;45.120;37.660;2023-05-23T05:40:07;0.30;;;0.30;;
64651;SDS011;51062;45.120;37.660;2023-05-23T05:42:40;0.40;;;0.40;;
64651;SDS011;51062;45.120;37.660;2023-05-23T05:45:07;0.28;;;0.28;;
64651;SDS011;51062;45.120;37.660;2023-05-23T05:47:35;0.28;;;0.28;;
64651;SDS011;51062;45.120;37.660;2023-05-23T05:50:06;0.32;;;0.32;;
64651;SDS011;51062;45.120;37.660;2023-05-23T05:52:36;0.30;;;0.30;;
64651;SDS011;51062;45.120;37.660;2023-05-23T05:55:06;0.38;;;0.38;;
64651;SDS011;51062;45.120;37.660;2023-05-23T05:57:39;0.20;;;0.20;;
64651;SDS011;51062;45.120;37.660;2023-05-23T06:00:06;0.88;;;0.85;;
64651;SDS011;51062;45.120;37.660;2023-05-23T06:02:52;0.73;;;0.73;;
64651;SDS011;51062;45.120;37.660;2023-05-23T06:05:41;0.47;;;0.47;;
64651;SDS011;51062;45.120;37.660;2023-05-23T06:08:07;1.75;;;0.52;;
64651;SDS011;51062;45.120;37.660;2023-05-23T06:10:55;0.63;;;0.63;;
64651;SDS011;51062;45.120;37.660;2023-05-23T06:13:21;0.50;;;0.50;;
64651;SDS011;51062;45.120;37.660;2023-05-23T06:15:51;0.30;;;0.30;;
64651;SDS011;51062;45.120;37.660;2023-05-23T06:18:17;0.75;;;0.75;;
64651;SDS011;51062;45.120;37.660;2023-05-23T06:20:43;1.02;;;0.98;;
64651;SDS011;51062;45.120;37.660;2023-05-23T06:23:14;0.30;;;0.30;;
64651;SDS011;51062;45.120;37.660;2023-05-23T06:25:40;0.30;;;0.30;;
64651;SDS011;51062;45.120;37.660;2023-05-23T06:28:06;1.08;;;0.75;;
64651;SDS011;51062;45.120;37.660;2023-05-23T06:30:32;0.50;;;0.50;;
64651;SDS011;51062;45.120;37.660;2023-05-23T06:33:00;0.90;;;0.90;;
64651;SDS011;51062;45.120;37.660;2023-05-23T06:35:27;0.20;;;0.20;;
64651;SDS011;51062;45.120;37.660;2023-05-23T06:37:53;0.20;;;0.20;;
64651;SDS011;51062;45.120;37.660;2023-05-23T06:40:19;1.83;;;1.08;;
64651;SDS011;51062;45.120;37.660;2023-05-23T06:42:45;0.30;;;0.30;;
64651;SDS011;51062;45.120;37.660;2023-05-23T06:45:24;0.32;;;0.32;;
64651;SDS011;51062;45.120;37.660;2023-05-23T06:47:50;1.40;;;1.30;;
64651;SDS011;51062;45.120;37.660;2023-05-23T06:50:17;0.43;;;0.43;;
64651;SDS011;51062;45.120;37.660;2023-05-23T06:52:48;0.40;;;0.40;;
64651;SDS011;51062;45.120;37.660;2023-05-23T06:55:15;0.40;;;0.40;;
64651;SDS011;51062;45.120;37.660;2023-05-23T06:57:45;1.30;;;0.80;;
64651;SDS011;51062;45.120;37.660;2023-05-23T07:00:12;0.85;;;0.75;;
64651;SDS011;51062;45.120;37.660;2023-05-23T07:02:49;0.88;;;0.77;;
64651;SDS011;51062;45.120;37.660;2023-05-23T07:05:18;0.50;;;0.50;;
64651;SDS011;51062;45.120;37.660;2023-05-23T07:07:49;1.00;;;0.95;;
64651;SDS011;51062;45.120;37.660;2023-05-23T07:10:16;0.28;;;0.28;;
64651;SDS011;51062;45.120;37.660;2023-05-23T07:12:46;1.20;;;0.88;;
64651;SDS011;51062;45.120;37.660;2023-05-23T07:15:14;0.43;;;0.43;;
64651;SDS011;51062;45.120;37.660;2023-05-23T07:17:52;0.40;;;0.40;;
64651;SDS011;51062;45.120;37.660;2023-05-23T07:20:18;0.40;;;0.40;;
64651;SDS011;51062;45.120;37.660;2023-05-23T07:22:46;1.23;;;1.13;;
64651;SDS011;51062;45.120;37.660;2023-05-23T07:25:14;2.45;;;1.55;;
64651;SDS011;51062;45.120;37.660;2023-05-23T07:27:40;1.90;;;1.75;;
64651;SDS011;51062;45.120;37.660;2023-05-23T07:30:06;0.60;;;0.60;;
64651;SDS011;51062;45.120;37.660;2023-05-23T07:32:35;2.50;;;1.15;;
64651;SDS011;51062;45.120;37.660;2023-05-23T07:35:02;2.97;;;2.28;;
64651;SDS011;51062;45.120;37.660;2023-05-23T07:37:28;0.68;;;0.68;;
64651;SDS011;51062;45.120;37.660;2023-05-23T07:39:55;2.08;;;1.33;;
64651;SDS011;51062;45.120;37.660;2023-05-23T07:42:21;2.80;;;1.13;;
64651;SDS011;51062;45.120;37.660;2023-05-23T07:44:47;1.85;;;1.73;;
64651;SDS011;51062;45.120;37.660;2023-05-23T07:47:14;0.85;;;0.85;;
64651;SDS011;51062;45.120;37.660;2023-05-23T07:49:40;0.63;;;0.63;;
64651;SDS011;51062;45.120;37.660;2023-05-23T07:52:06;1.25;;;1.15;;
64651;SDS011;51062;45.120;37.660;2023-05-23T07:54:33;0.85;;;0.82;;
64651;SDS011;51062;45.120;37.660;2023-05-23T07:57:01;4.57;;;2.22;;
64651;SDS011;51062;45.120;37.660;2023-05-23T07:59:27;1.65;;;0.98;;
64651;SDS011;51062;45.120;37.660;2023-05-23T08:01:54;3.63;;;1.15;;
64651;SDS011;51062;45.120;37.660;2023-05-23T08:04:22;1.30;;;1.20;;
64651;SDS011;51062;45.120;37.660;2023-05-23T08:06:53;0.93;;;0.93;;
64651;SDS011;51062;45.120;37.660;2023-05-23T08:09:22;0.20;;;0.20;;
64651;SDS011;51062;45.120;37.660;2023-05-23T08:11:51;1.08;;;1.02;;
64651;SDS011;51062;45.120;37.660;2023-05-23T08:14:19;0.68;;;0.68;;
64651;SDS011;51062;45.120;37.660;2023-05-23T08:16:58;0.45;;;0.45;;
64651;SDS011;51062;45.120;37.660;2023-05-23T08:19:26;0.68;;;0.68;;
64651;SDS011;51062;45.120;37.660;2023-05-23T08:21:52;0.45;;;0.45;;
64651;SDS011;51062;45.120;37.660;2023-05-23T08:24:19;0.25;;;0.25;;
64651;SDS011;51062;45.120;37.660;2023-05-23T08:26:46;0.30;;;0.30;;
64651;SDS011;51062;45.120;37.660;2023-05-23T08:29:13;0.35;;;0.35;;
64651;SDS011;51062;45.120;37.660;2023-05-23T08:31:41;3.85;;;0.77;;
64651;SDS011;51062;45.120;37.660;2023-05-23T08:34:08;0.40;;;0.40;;
64651;SDS011;51062;45.120;37.660;2023-05-23T08:36:37;1.05;;;0.82;;
64651;SDS011;51062;45.120;37.660;2023-05-23T08:39:06;0.77;;;0.77;;
64651;SDS011;51062;45.120;37.660;2023-05-23T08:41:38;3.63;;;1.40;;
64651;SDS011;51062;45.120;37.660;2023-05-23T08:44:09;0.60;;;0.60;;
64651;SDS011;51062;45.120;37.660;2023-05-23T08:46:44;0.32;;;0.32;;
64651;SDS011;51062;45.120;37.660;2023-05-23T08:49:18;0.50;;;0.50;;
64651;SDS011;51062;45.120;37.660;2023-05-23T08:51:47;0.45;;;0.45;;
64651;SDS011;51062;45.120;37.660;2023-05-23T08:54:20;2.60;;;1.13;;
64651;SDS011;51062;45.120;37.660;2023-05-23T08:56:47;1.15;;;1.05;;
64651;SDS011;51062;45.120;37.660;2023-05-23T08:59:13;0.35;;;0.35;;
64651;SDS011;51062;45.120;37.660;2023-05-23T09:01:41;0.63;;;0.63;;
64651;SDS011;51062;45.120;37.660;2023-05-23T09:04:12;0.20;;;0.20;;
64651;SDS011;51062;45.120;37.660;2023-05-23T09:06:48;0.43;;;0.43;;
64651;SDS011;51062;45.120;37.660;2023-05-23T09:09:15;0.10;;;0.10;;
64651;SDS011;51062;45.120;37.660;2023-05-23T09:11:42;0.40;;;0.40;;
64651;SDS011;51062;45.120;37.660;2023-05-23T09:14:10;0.90;;;0.88;;
64651;SDS011;51062;45.120;37.660;2023-05-23T09:16:40;1.13;;;1.02;;
64651;SDS011;51062;45.120;37.660;2023-05-23T09:19:12;2.50;;;1.58;;
64651;SDS011;51062;45.120;37.660;2023-05-23T09:21:44;2.05;;;1.23;;
64651;SDS011;51062;45.120;37.660;2023-05-23T09:24:18;0.32;;;0.32;;
64651;SDS011;51062;45.120;37.660;2023-05-23T09:26:47;1.30;;;1.20;;
64651;SDS011;51062;45.120;37.660;2023-05-23T09:29:17;2.40;;;1.38;;
64651;SDS011;51062;45.120;37.660;2023-05-23T09:31:44;0.73;;;0.73;;
64651;SDS011;51062;45.120;37.660;2023-05-23T09:34:11;0.35;;;0.35;;
64651;SDS011;51062;45.120;37.660;2023-05-23T09:36:39;0.30;;;0.30;;
64651;SDS011;51062;45.120;37.660;2023-05-23T09:39:09;0.43;;;0.43;;
64651;SDS011;51062;45.120;37.660;2023-05-23T09:41:36;0.30;;;0.30;;
64651;SDS011;51062;45.120;37.660;2023-05-23T09:44:04;0.52;;;0.52;;
64651;SDS011;51062;45.120;37.660;2023-05-23T09:46:33;0.30;;;0.30;;
64651;SDS011;51062;45.120;37.660;2023-05-23T09:49:01;0.40;;;0.40;;
64651;SDS011;51062;45.120;37.660;2023-05-23T09:51:27;1.08;;;0.50;;
64651;SDS011;51062;45.120;37.660;2023-05-23T09:53:54;1.88;;;0.63;;
64651;SDS011;51062;45.120;37.660;2023-05-23T09:56:21;0.57;;;0.57;;
64651;SDS011;51062;45.120;37.660;2023-05-23T09:58:49;0.90;;;0.55;;
64651;SDS011;51062;45.120;37.660;2023-05-23T10:01:16;1.08;;;0.50;;
64651;SDS011;51062;45.120;37.660;2023-05-23T10:03:48;0.40;;;0.40;;
64651;SDS011;51062;45.120;37.660;2023-05-23T10:06:22;0.43;;;0.43;;
64651;SDS011;51062;45.120;37.660;2023-05-23T10:08:54;0.22;;;0.22;;
64651;SDS011;51062;45.120;37.660;2023-05-23T10:14:03;1.02;;;0.90;;
64651;SDS011;51062;45.120;37.660;2023-05-23T10:19:22;0.82;;;0.82;;
64651;SDS011;51062;45.120;37.660;2023-05-23T10:21:59;0.10;;;0.10;;
64651;SDS011;51062;45.120;37.660;2023-05-23T10:24:28;0.20;;;0.20;;
64651;SDS011;51062;45.120;37.660;2023-05-23T10:26:54;1.65;;;1.45;;
64651;SDS011;51062;45.120;37.660;2023-05-23T10:29:21;0.43;;;0.43;;
64651;SDS011;51062;45.120;37.660;2023-05-23T10:31:47;3.00;;;0.85;;
64651;SDS011;51062;45.120;37.660;2023-05-23T10:37:28;0.22;;;0.22;;
64651;SDS011;51062;45.120;37.660;2023-05-23T10:43:19;0.20;;;0.20;;
64651;SDS011;51062;45.120;37.660;2023-05-23T10:45:48;3.00;;;0.70;;
64651;SDS011;51062;45.120;37.660;2023-05-23T10:51:01;0.15;;;0.15;;
64651;SDS011;51062;45.120;37.660;2023-05-23T10:53:28;0.28;;;0.28;;
64651;SDS011;51062;45.120;37.660;2023-05-23T10:55:55;0.43;;;0.43;;
64651;SDS011;51062;45.120;37.660;2023-05-23T10:58:21;0.40;;;0.40;;
64651;SDS011;51062;45.120;37.660;2023-05-23T11:00:54;0.60;;;0.60;;
64651;SDS011;51062;45.120;37.660;2023-05-23T11:09:02;0.43;;;0.30;;
64651;SDS011;51062;45.120;37.660;2023-05-23T11:11:52;0.13;;;0.13;;
64651;SDS011;51062;45.120;37.660;2023-05-23T11:14:30;0.10;;;0.10;;
64651;SDS011;51062;45.120;37.660;2023-05-23T11:17:28;0.35;;;0.35;;
64651;SDS011;51062;45.120;37.660;2023-05-23T11:20:05;0.20;;;0.20;;
64651;SDS011;51062;45.120;37.660;2023-05-23T11:22:34;0.20;;;0.20;;
64651;SDS011;51062;45.120;37.660;2023-05-23T11:25:02;0.00;;;0.00;;
64651;SDS011;51062;45.120;37.660;2023-05-23T11:27:39;0.43;;;0.40;;
64651;SDS011;51062;45.120;37.660;2023-05-23T11:32:34;0.32;;;0.32;;
64651;SDS011;51062;45.120;37.660;2023-05-23T11:35:01;0.20;;;0.20;;
64651;SDS011;51062;45.120;37.660;2023-05-23T11:37:29;0.88;;;0.55;;
64651;SDS011;51062;45.120;37.660;2023-05-23T11:39:56;0.22;;;0.22;;
64651;SDS011;51062;45.120;37.660;2023-05-23T11:42:22;1.38;;;0.77;;
64651;SDS011;51062;45.120;37.660;2023-05-23T11:44:49;0.30;;;0.30;;
64651;SDS011;51062;45.120;37.660;2023-05-23T11:47:16;0.13;;;0.13;;
64651;SDS011;51062;45.120;37.660;2023-05-23T11:49:46;0.75;;;0.25;;
64651;SDS011;51062;45.120;37.660;2023-05-23T11:52:12;0.40;;;0.40;;
64651;SDS011;51062;45.120;37.660;2023-05-23T11:54:42;0.55;;;0.55;;
64651;SDS011;51062;45.120;37.660;2023-05-23T11:57:08;1.75;;;1.20;;
64651;SDS011;51062;45.120;37.660;2023-05-23T11:59:35;0.68;;;0.32;;
64651;SDS011;51062;45.120;37.660;2023-05-23T12:02:02;0.35;;;0.35;;
64651;SDS011;51062;45.120;37.660;2023-05-23T12:04:30;2.03;;;1.08;;
64651;SDS011;51062;45.120;37.660;2023-05-23T12:06:56;0.47;;;0.43;;
64651;SDS011;51062;45.120;37.660;2023-05-23T12:09:22;0.15;;;0.15;;
64651;SDS011;51062;45.120;37.660;2023-05-23T12:11:48;0.20;;;0.20;;
64651;SDS011;51062;45.120;37.660;2023-05-23T12:14:15;1.08;;;0.90;;
64651;SDS011;51062;45.120;37.660;2023-05-23T12:16:45;0.20;;;0.20;;
64651;SDS011;51062;45.120;37.660;2023-05-23T12:19:11;0.45;;;0.45;;
64651;SDS011;51062;45.120;37.660;2023-05-23T12:21:44;6.90;;;0.82;;
64651;SDS011;51062;45.120;37.660;2023-05-23T12:24:16;0.35;;;0.35;;
64651;SDS011;51062;45.120;37.660;2023-05-23T12:26:52;0.22;;;0.22;;
64651;SDS011;51062;45.120;37.660;2023-05-23T12:29:28;1.45;;;0.95;;
64651;SDS011;51062;45.120;37.660;2023-05-23T12:31:56;0.35;;;0.35;;
64651;SDS011;51062;45.120;37.660;2023-05-23T12:34:23;0.22;;;0.22;;
64651;SDS011;51062;45.120;37.660;2023-05-23T12:36:49;0.20;;;0.20;;
64651;SDS011;51062;45.120;37.660;2023-05-23T12:39:26;0.38;;;0.35;;
64651;SDS011;51062;45.120;37.660;2023-05-23T12:41:53;1.98;;;1.25;;
64651;SDS011;51062;45.120;37.660;2023-05-23T12:44:21;0.40;;;0.40;;
64651;SDS011;51062;45.120;37.660;2023-05-23T12:46:47;0.30;;;0.30;;
64651;SDS011;51062;45.120;37.660;2023-05-23T12:49:13;0.20;;;0.20;;
64651;SDS011;51062;45.120;37.660;2023-05-23T12:51:39;0.30;;;0.20;;
64651;SDS011;51062;45.120;37.660;2023-05-23T12:54:07;0.55;;;0.40;;
64651;SDS011;51062;45.120;37.660;2023-05-23T12:56:33;0.15;;;0.15;;
64651;SDS011;51062;45.120;37.660;2023-05-23T12:59:01;4.38;;;0.30;;
64651;SDS011;51062;45.120;37.660;2023-05-23T13:01:27;0.73;;;0.50;;
64651;SDS011;51062;45.120;37.660;2023-05-23T13:03:54;0.13;;;0.13;;
64651;SDS011;51062;45.120;37.660;2023-05-23T13:06:20;0.15;;;0.15;;
64651;SDS011;51062;45.120;37.660;2023-05-23T13:08:46;1.33;;;1.23;;
64651;SDS011;51062;45.120;37.660;2023-05-23T13:11:14;2.97;;;0.52;;
64651;SDS011;51062;45.120;37.660;2023-05-23T13:13:40;0.17;;;0.17;;
64651;SDS011;51062;45.120;37.660;2023-05-23T13:16:06;0.25;;;0.25;;
64651;SDS011;51062;45.120;37.660;2023-05-23T13:18:33;0.68;;;0.30;;
64651;SDS011;51062;45.120;37.660;2023-05-23T13:21:00;0.93;;;0.80;;
64651;SDS011;51062;45.120;37.660;2023-05-23T13:23:26;0.73;;;0.73;;
64651;SDS011;51062;45.120;37.660;2023-05-23T13:25:52;0.03;;;0.03;;
64651;SDS011;51062;45.120;37.660;2023-05-23T13:28:18;1.02;;;0.73;;
64651;SDS011;51062;45.120;37.660;2023-05-23T13:30:44;0.75;;;0.75;;
64651;SDS011;51062;45.120;37.660;2023-05-23T13:33:10;0.65;;;0.65;;
64651;SDS011;51062;45.120;37.660;2023-05-23T13:35:37;0.60;;;0.57;;
64651;SDS011;51062;45.120;37.660;2023-05-23T13:38:03;1.35;;;0.75;;
64651;SDS011;51062;45.120;37.660;2023-05-23T13:40:30;0.88;;;0.40;;
64651;SDS011;51062;45.120;37.660;2023-05-23T13:42:57;1.02;;;0.93;;
64651;SDS011;51062;45.120;37.660;2023-05-23T13:45:23;0.30;;;0.30;;
64651;SDS011;51062;45.120;37.660;2023-05-23T13:47:49;2.40;;;1.75;;
64651;SDS011;51062;45.120;37.660;2023-05-23T13:50:15;0.20;;;0.20;;
64651;SDS011;51062;45.120;37.660;2023-05-23T13:52:41;0.17;;;0.17;;
64651;SDS011;51062;45.120;37.660;2023-05-23T13:55:08;0.63;;;0.63;;
64651;SDS011;51062;45.120;37.660;2023-05-23T13:57:34;1.08;;;0.77;;
64651;SDS011;51062;45.120;37.660;2023-05-23T14:00:00;2.17;;;1.30;;
64651;SDS011;51062;45.120;37.660;2023-05-23T14:02:31;0.10;;;0.10;;
64651;SDS011;51062;45.120;37.660;2023-05-23T14:04:57;0.35;;;0.35;;
64651;SDS011;51062;45.120;37.660;2023-05-23T14:07:23;0.63;;;0.60;;
64651;SDS011;51062;45.120;37.660;2023-05-23T14:09:49;0.88;;;0.17;;
64651;SDS011;51062;45.120;37.660;2023-05-23T14:12:15;0.35;;;0.35;;
64651;SDS011;51062;45.120;37.660;2023-05-23T14:14:42;0.20;;;0.20;;
64651;SDS011;51062;45.120;37.660;2023-05-23T14:17:12;0.55;;;0.50;;
64651;SDS011;51062;45.120;37.660;2023-05-23T14:19:41;2.53;;;0.82;;
64651;SDS011;51062;45.120;37.660;2023-05-23T14:22:08;0.10;;;0.10;;
64651;SDS011;51062;45.120;37.660;2023-05-23T14:24:35;0.35;;;0.32;;
64651;SDS011;51062;45.120;37.660;2023-05-23T14:27:02;0.55;;;0.55;;
64651;SDS011;51062;45.120;37.660;2023-05-23T14:29:28;0.40;;;0.40;;
64651;SDS011;51062;45.120;37.660;2023-05-23T14:31:54;0.08;;;0.08;;
64651;SDS011;51062;45.120;37.660;2023-05-23T14:34:21;8.52;;;1.05;;
64651;SDS011;51062;45.120;37.660;2023-05-23T14:36:47;1.00;;;0.30;;
64651;SDS011;51062;45.120;37.660;2023-05-23T14:39:13;0.73;;;0.73;;
64651;SDS011;51062;45.120;37.660;2023-05-23T14:41:39;0.52;;;0.52;;
64651;SDS011;51062;45.120;37.660;2023-05-23T14:44:05;0.30;;;0.30;;
64651;SDS011;51062;45.120;37.660;2023-05-23T14:46:31;0.57;;;0.55;;
64651;SDS011;51062;45.120;37.660;2023-05-23T14:48:57;0.38;;;0.38;;
64651;SDS011;51062;45.120;37.660;2023-05-23T14:51:23;0.57;;;0.55;;
64651;SDS011;51062;45.120;37.660;2023-05-23T14:53:49;1.95;;;0.68;;
64651;SDS011;51062;45.120;37.660;2023-05-23T14:56:16;0.03;;;0.03;;
64651;SDS011;51062;45.120;37.660;2023-05-23T14:58:42;2.05;;;0.45;;
64651;SDS011;51062;45.120;37.660;2023-05-23T15:01:13;0.52;;;0.52;;
64651;SDS011;51062;45.120;37.660;2023-05-23T15:03:39;4.43;;;0.80;;
64651;SDS011;51062;45.120;37.660;2023-05-23T15:06:05;1.90;;;0.93;;
64651;SDS011;51062;45.120;37.660;2023-05-23T15:08:32;0.20;;;0.20;;
64651;SDS011;51062;45.120;37.660;2023-05-23T15:10:58;0.10;;;0.10;;